createdAt,value
2023-05-12T00:02:11.093Z,8.23
2023-05-12T00:07:14.668Z,8.77
2023-05-12T00:12:19.518Z,8.70
2023-05-12T00:17:23.312Z,8.83
2023-05-12T00:22:26.974Z,9.53
2023-05-12T00:27:33.136Z,9.20
2023-05-12T00:32:37.068Z,9.57
2023-05-12T00:37:40.526Z,9.73
2023-05-12T00:42:45.356Z,8.57
2023-05-12T00:47:49.455Z,8.10
2023-05-12T00:52:53.538Z,8.50
2023-05-12T00:57:58.770Z,9.07
2023-05-12T01:03:03.984Z,8.53
2023-05-12T01:08:09.554Z,8.27
2023-05-12T01:13:14.695Z,8.57
2023-05-12T01:18:21.885Z,9.60
2023-05-12T01:23:32.082Z,7.97
2023-05-12T01:28:38.396Z,7.67
2023-05-12T01:33:43.626Z,7.03
2023-05-12T01:38:47.293Z,8.13
2023-05-12T01:43:53.025Z,8.00
2023-05-12T01:48:56.977Z,8.30
2023-05-12T01:54:00.478Z,8.37
2023-05-12T01:59:09.927Z,8.47
2023-05-12T02:04:14.925Z,8.63
2023-05-12T02:09:19.138Z,8.47
2023-05-12T02:14:24.435Z,8.87
2023-05-12T02:19:28.030Z,8.60
2023-05-12T02:24:34.488Z,8.00
2023-05-12T02:29:40.058Z,9.80
2023-05-12T02:34:44.038Z,9.37
2023-05-12T02:39:47.857Z,9.40
2023-05-12T02:44:52.909Z,8.60
2023-05-12T02:49:56.973Z,9.40
2023-05-12T02:55:00.953Z,10.03
2023-05-12T03:00:32.488Z,10.70
2023-05-12T03:05:36.309Z,10.57
2023-05-12T03:10:40.073Z,10.30
2023-05-12T03:15:45.004Z,11.03
2023-05-12T03:20:48.828Z,11.13
2023-05-12T03:25:52.916Z,11.20
2023-05-12T03:30:57.877Z,11.27
2023-05-12T03:36:02.306Z,10.70
2023-05-12T03:41:06.468Z,11.60
2023-05-12T03:46:12.950Z,11.17
2023-05-12T03:51:16.904Z,11.33
2023-05-12T03:56:20.696Z,11.60
2023-05-12T04:01:25.777Z,11.03
2023-05-12T04:06:29.677Z,10.93
2023-05-12T04:11:34.647Z,11.93
2023-05-12T04:16:40.837Z,12.87
2023-05-12T04:21:44.437Z,10.47
2023-05-12T04:26:48.253Z,9.17
2023-05-12T04:31:53.328Z,9.50
2023-05-12T04:36:56.981Z,10.50
2023-05-12T04:42:02.188Z,10.77
2023-05-12T04:47:09.448Z,10.33
2023-05-12T04:52:13.008Z,10.37
2023-05-12T04:57:16.771Z,8.73
2023-05-12T05:02:22.615Z,9.40
2023-05-12T05:07:26.713Z,9.47
2023-05-12T05:12:30.576Z,9.70
2023-05-12T05:17:35.718Z,9.13
2023-05-12T05:22:40.974Z,9.07
2023-05-12T05:27:45.053Z,8.53
2023-05-12T05:32:50.385Z,8.53
2023-05-12T05:37:54.648Z,8.33
2023-05-12T05:42:59.427Z,7.47
2023-05-12T05:48:05.032Z,7.50
2023-05-12T05:53:09.310Z,6.90
2023-05-12T05:58:13.361Z,6.57
2023-05-12T06:03:18.660Z,7.23
2023-05-12T06:08:22.304Z,6.40
2023-05-12T06:13:26.390Z,6.10
2023-05-12T06:18:33.916Z,5.67
2023-05-12T06:23:37.813Z,6.63
2023-05-12T06:28:41.346Z,7.10
2023-05-12T06:33:46.347Z,4.60
2023-05-12T06:38:51.131Z,4.57
2023-05-12T06:43:54.840Z,4.50
2023-05-12T06:49:06.097Z,4.77
2023-05-12T06:54:11.888Z,4.67
2023-05-12T06:59:15.319Z,5.23
2023-05-12T07:04:20.130Z,4.80
2023-05-12T07:09:23.824Z,4.03
2023-05-12T07:14:27.950Z,4.23
2023-05-12T07:19:32.835Z,3.63
2023-05-12T07:24:36.252Z,3.50
2023-05-12T07:29:39.998Z,3.80
2023-05-12T07:34:44.843Z,3.43
2023-05-12T07:39:48.362Z,2.90
2023-05-12T07:44:51.745Z,2.70
2023-05-12T07:49:56.669Z,2.40
2023-05-12T07:55:00.354Z,3.13
2023-05-12T08:00:04.967Z,2.97
2023-05-12T08:05:18.648Z,2.97
2023-05-12T08:10:26.680Z,2.60
2023-05-12T08:15:30.674Z,2.57
2023-05-12T08:20:36.152Z,2.83
2023-05-12T08:25:40.963Z,2.87
2023-05-12T08:30:45.263Z,2.40
2023-05-12T08:35:50.877Z,2.27
2023-05-12T08:41:08.994Z,3.07
2023-05-12T08:46:13.614Z,2.37
2023-05-12T08:51:20.766Z,2.93
2023-05-12T09:01:33.715Z,2.57
2023-05-12T09:06:40.385Z,2.10
2023-05-12T09:11:44.757Z,2.20
2023-05-12T09:16:51.920Z,2.50
2023-05-12T09:21:56.959Z,2.73
2023-05-12T09:27:00.462Z,2.33
2023-05-12T09:32:05.785Z,2.30
2023-05-12T09:37:12.703Z,2.37
2023-05-12T09:42:17.353Z,1.60
2023-05-12T09:47:21.170Z,2.50
2023-05-12T09:52:26.079Z,2.20
2023-05-12T09:57:30.233Z,2.10
2023-05-12T10:02:35.532Z,1.90
2023-05-12T10:07:41.685Z,3.13
2023-05-12T10:12:45.737Z,3.85
2023-05-12T10:17:53.075Z,4.83
2023-05-12T10:23:00.355Z,2.20
2023-05-12T10:28:05.249Z,1.70
2023-05-12T10:33:11.621Z,1.60
2023-05-12T10:38:17.600Z,1.90
2023-05-12T10:43:25.246Z,1.90
2023-05-12T10:48:28.641Z,1.70
2023-05-12T10:53:48.727Z,1.97
2023-05-12T10:59:17.236Z,2.00
2023-05-12T11:04:22.455Z,1.70
2023-05-12T11:09:27.851Z,1.90
2023-05-12T11:14:33.200Z,1.65
2023-05-12T11:19:37.430Z,1.77
2023-05-12T11:24:43.604Z,1.87
2023-05-12T11:29:57.501Z,2.30
2023-05-12T11:35:10.969Z,2.27
2023-05-12T11:40:17.461Z,1.60
2023-05-12T11:45:23.336Z,1.37
2023-05-12T11:50:27.119Z,1.70
2023-05-12T11:55:34.190Z,1.75
2023-05-12T12:00:37.985Z,1.70
2023-05-12T12:05:43.062Z,1.73
2023-05-12T12:10:48.684Z,1.50
2023-05-12T12:15:52.871Z,1.70
2023-05-12T12:20:56.579Z,1.63
2023-05-12T12:26:01.412Z,1.70
2023-05-12T12:31:05.917Z,1.77
2023-05-12T12:36:09.909Z,1.80
2023-05-12T12:41:15.230Z,1.43
2023-05-12T12:46:19.128Z,1.67
2023-05-12T12:51:22.557Z,2.53
2023-05-12T12:56:27.492Z,1.80
2023-05-12T13:01:31.170Z,1.73
2023-05-12T13:06:34.929Z,1.70
2023-05-12T13:11:40.784Z,1.90
2023-05-12T13:16:45.019Z,1.73
2023-05-12T13:21:50.422Z,1.60
2023-05-12T13:26:57.055Z,1.50
2023-05-12T13:32:01.744Z,1.60
2023-05-12T13:37:07.490Z,1.63
2023-05-12T13:42:16.246Z,1.40
2023-05-12T13:47:22.905Z,1.60
2023-05-12T13:52:28.013Z,1.80
2023-05-12T13:57:36.575Z,1.70
2023-05-12T14:02:40.735Z,1.70
2023-05-12T14:08:23.811Z,1.77
2023-05-12T14:13:30.398Z,1.67
2023-05-12T14:18:34.823Z,1.60
2023-05-12T14:23:39.672Z,1.23
2023-05-12T14:28:47.913Z,1.47
2023-05-12T14:34:06.682Z,1.50
2023-05-12T14:39:24.836Z,1.57
2023-05-12T14:44:49.880Z,2.00
2023-05-12T14:50:03.446Z,1.50
2023-05-12T14:55:25.238Z,1.80
2023-05-12T15:00:43.832Z,1.57
2023-05-12T15:11:07.542Z,1.63
2023-05-12T15:16:34.489Z,1.93
2023-05-12T15:21:42.260Z,1.40
2023-05-12T15:26:56.259Z,1.60
2023-05-12T15:32:31.132Z,1.93
2023-05-12T15:37:49.311Z,2.00
2023-05-12T15:42:56.790Z,1.87
2023-05-12T15:48:13.016Z,1.70
2023-05-12T15:53:26.517Z,1.77
2023-05-12T15:58:43.926Z,1.70
2023-05-12T16:03:55.597Z,1.60
2023-05-12T16:09:13.309Z,1.80
2023-05-12T16:14:35.946Z,1.53
2023-05-12T16:19:54.335Z,1.80
2023-05-12T16:25:05.593Z,1.90
2023-05-12T16:30:22.305Z,1.70
2023-05-12T16:36:10.775Z,2.27
2023-05-12T16:41:44.743Z,2.20
2023-05-12T16:46:49.547Z,1.60
2023-05-12T16:51:54.245Z,1.73
2023-05-12T16:57:03.055Z,1.90
2023-05-12T17:07:43.175Z,1.77
2023-05-12T17:13:23.371Z,1.90
2023-05-12T17:24:18.622Z,5.93
2023-05-12T17:29:36.186Z,4.53
2023-05-12T17:34:42.020Z,5.00
2023-05-12T17:40:23.741Z,3.30
2023-05-12T17:45:35.151Z,2.30
2023-05-12T17:50:42.983Z,2.30
2023-05-12T18:30:51.565Z,2.73
2023-05-12T18:35:55.373Z,2.60
2023-05-12T18:40:58.811Z,2.50
2023-05-12T18:46:04.952Z,1.80
2023-05-12T18:51:09.576Z,2.27
2023-05-12T18:56:13.154Z,3.17
2023-05-12T19:01:18.363Z,2.10
2023-05-12T19:06:22.324Z,2.10
2023-05-12T19:11:25.913Z,2.63
2023-05-12T19:16:32.424Z,2.37
2023-05-12T19:21:37.938Z,2.93
2023-05-12T19:26:41.396Z,3.00
2023-05-12T19:31:46.707Z,3.10
2023-05-12T19:36:52.098Z,2.80
2023-05-12T19:41:55.690Z,3.37
2023-05-12T19:47:04.780Z,3.17
2023-05-12T19:52:08.676Z,3.27
2023-05-12T19:57:12.169Z,3.60
2023-05-12T20:02:18.489Z,3.83
2023-05-12T20:07:22.296Z,4.07
2023-05-12T20:12:26.030Z,3.70
2023-05-12T20:17:30.966Z,3.77
2023-05-12T20:22:34.775Z,3.10
2023-05-12T20:27:38.532Z,4.10
2023-05-12T20:32:43.804Z,4.07
2023-05-12T20:37:47.495Z,3.73
2023-05-12T20:42:50.988Z,3.57
2023-05-12T20:47:55.869Z,3.73
2023-05-12T20:52:59.528Z,3.63
2023-05-12T20:58:02.929Z,4.00
2023-05-12T21:03:14.383Z,3.30
2023-05-12T21:08:18.028Z,3.87
2023-05-12T21:13:21.887Z,3.43
2023-05-12T21:18:27.080Z,4.00
2023-05-12T21:23:30.535Z,4.60
2023-05-12T21:28:34.233Z,4.23
2023-05-12T21:33:39.437Z,4.03
2023-05-12T21:38:43.000Z,4.07
2023-05-12T21:43:46.500Z,3.50
2023-05-12T21:48:51.466Z,4.37
2023-05-12T21:53:55.466Z,5.80
2023-05-12T21:58:59.192Z,6.53
2023-05-12T22:04:05.062Z,6.20
2023-05-12T22:09:08.925Z,7.03
2023-05-12T22:14:12.358Z,7.67
2023-05-12T22:19:18.248Z,6.47
2023-05-12T22:24:22.094Z,7.77
2023-05-12T22:29:25.961Z,8.70
2023-05-12T22:34:31.163Z,8.80
2023-05-12T22:39:34.760Z,8.37
2023-05-12T22:44:39.599Z,11.10
2023-05-12T22:49:44.559Z,10.60
2023-05-12T22:54:47.979Z,9.87
2023-05-12T22:59:51.915Z,9.77
2023-05-12T23:04:56.818Z,8.57
2023-05-12T23:10:00.298Z,8.07
2023-05-12T23:15:03.754Z,8.20
2023-05-12T23:20:11.237Z,6.87
2023-05-12T23:25:14.964Z,7.30
2023-05-12T23:30:18.449Z,8.40
2023-05-12T23:35:23.291Z,7.27
2023-05-12T23:40:26.919Z,5.67
2023-05-12T23:45:30.726Z,5.77
2023-05-12T23:50:36.430Z,5.97
2023-05-12T23:55:39.946Z,6.13
